Time;durP1;ratioP1;P1;durP2;ratioP2;P2;SDS_P1;SDS_P2;PMS_P1;PMS_P2;Temp;Humidity;BMP_temperature;BMP_pressure;BME280_temperature;BME280_humidity;BME280_pressure;Samples;Min_cycle;Max_cycle;Signal;HPM_P1;HPM_P2
2024/01/22 00:01:57;;;;;;;41.15;18.95;;;;;;;-5.06;79.57;95548.41;5110547;28;20168;-80
2024/01/22 00:04:22;;;;;;;42.95;18.40;;;;;;;-5.06;78.52;95555.41;5112081;28;20330;-82
2024/01/22 00:06:47;;;;;;;35.97;17.50;;;;;;;-5.08;78.43;95550.38;5108232;28;20028;-77
2024/01/22 00:09:13;;;;;;;49.13;17.75;;;;;;;-5.12;78.86;95551.69;5108182;28;20040;-80
2024/01/22 00:11:41;;;;;;;38.05;17.98;;;;;;;-5.11;78.49;95553.34;5110080;28;20020;-80
2024/01/22 00:14:06;;;;;;;41.20;18.50;;;;;;;-5.09;78.78;95558.34;5106669;28;20031;-81
2024/01/22 00:16:32;;;;;;;54.22;21.17;;;;;;;-5.04;79.21;95554.25;5106015;28;20020;-79
2024/01/22 00:18:57;;;;;;;45.75;17.92;;;;;;;-5.16;79.06;95560.84;5104652;28;20020;-79
2024/01/22 00:21:23;;;;;;;52.33;20.38;;;;;;;-5.11;79.35;95558.53;5104777;28;20028;-79
2024/01/22 00:23:48;;;;;;;54.58;20.98;;;;;;;-5.10;79.00;95562.75;5104867;28;20044;-79
2024/01/22 00:26:14;;;;;;;47.58;20.58;;;;;;;-5.08;79.17;95557.38;5104386;28;20113;-80
2024/01/22 00:28:41;;;;;;;52.05;19.58;;;;;;;-5.10;79.11;95567.94;5105059;28;20020;-81
2024/01/22 00:31:07;;;;;;;47.22;20.00;;;;;;;-5.11;79.00;95566.34;5103951;28;20030;-81
2024/01/22 00:33:32;;;;;;;40.55;19.10;;;;;;;-5.16;79.04;95563.44;5105534;28;20020;-80
2024/01/22 00:35:58;;;;;;;53.50;19.10;;;;;;;-5.24;79.16;95571.28;5105819;28;20024;-81
2024/01/22 00:38:23;;;;;;;45.03;18.98;;;;;;;-5.32;78.90;95569.53;5104944;28;20020;-80
2024/01/22 00:40:49;;;;;;;51.08;20.02;;;;;;;-5.38;79.26;95572.03;5105418;28;20222;-82
2024/01/22 00:43:14;;;;;;;49.72;21.63;;;;;;;-5.41;79.71;95564.56;5105140;28;20039;-79
2024/01/22 00:45:40;;;;;;;45.28;21.65;;;;;;;-5.36;80.22;95559.66;5105667;28;20019;-77
2024/01/22 00:48:06;;;;;;;54.78;22.17;;;;;;;-5.42;80.44;95560.34;5109427;28;20102;-78
2024/01/22 00:50:31;;;;;;;57.97;23.58;;;;;;;-5.40;80.64;95561.00;5110723;28;20043;-78
2024/01/22 00:52:56;;;;;;;58.08;22.27;;;;;;;-5.35;80.76;95549.09;5110964;28;20015;-78
2024/01/22 00:55:22;;;;;;;51.55;21.60;;;;;;;-5.33;80.73;95541.94;5111346;28;20027;-79
2024/01/22 00:57:48;;;;;;;52.42;21.95;;;;;;;-5.28;80.42;95549.22;5111638;28;20016;-79
2024/01/22 01:00:15;;;;;;;56.20;21.10;;;;;;;-5.35;79.84;95549.09;5109784;28;20035;-78
2024/01/22 01:02:40;;;;;;;49.78;20.83;;;;;;;-5.36;80.54;95546.69;5108288;28;20043;-78
2024/01/22 01:05:06;;;;;;;52.60;22.73;;;;;;;-5.28;80.86;95536.22;5108301;28;20020;-79
2024/01/22 01:07:31;;;;;;;62.67;22.88;;;;;;;-5.19;81.04;95537.78;5107566;28;20093;-78
2024/01/22 01:09:56;;;;;;;61.13;23.25;;;;;;;-5.16;80.66;95542.63;5107827;28;20023;-79
2024/01/22 01:12:22;;;;;;;54.50;21.45;;;;;;;-5.12;80.44;95543.91;5108125;28;20027;-79
2024/01/22 01:14:47;;;;;;;60.60;20.85;;;;;;;-5.06;80.42;95543.22;5107767;28;20055;-79
2024/01/22 01:17:12;;;;;;;64.97;23.48;;;;;;;-5.01;80.08;95549.69;5107274;28;20360;-79
2024/01/22 01:19:39;;;;;;;55.28;22.38;;;;;;;-4.95;80.10;95543.78;5107041;28;20040;-79
2024/01/22 01:22:05;;;;;;;59.22;22.13;;;;;;;-4.90;80.02;95546.69;5106894;28;20222;-79
2024/01/22 01:24:30;;;;;;;57.67;20.80;;;;;;;-4.85;79.31;95546.94;5106760;28;20024;-79
2024/01/22 01:26:56;;;;;;;55.50;22.08;;;;;;;-4.77;79.10;95531.25;5107993;28;20319;-79
2024/01/22 01:29:24;;;;;;;54.05;21.20;;;;;;;-4.71;79.05;95540.97;5108275;28;20028;-78
2024/01/22 01:31:49;;;;;;;52.53;21.65;;;;;;;-4.78;78.92;95540.06;5108167;28;20027;-79
2024/01/22 01:34:15;;;;;;;55.20;22.33;;;;;;;-4.75;78.67;95531.91;5107219;28;20016;-79
2024/01/22 01:36:40;;;;;;;53.97;20.92;;;;;;;-4.72;78.70;95534.16;5107955;28;20043;-82
2024/01/22 01:39:06;;;;;;;51.67;20.75;;;;;;;-4.69;78.32;95533.78;5107709;28;20308;-81
2024/01/22 01:41:31;;;;;;;51.53;20.92;;;;;;;-4.62;78.11;95533.88;5105970;28;20032;-81
2024/01/22 01:43:57;;;;;;;47.58;21.15;;;;;;;-4.61;77.11;95532.91;5108181;28;20024;-81
2024/01/22 01:46:22;;;;;;;51.22;20.58;;;;;;;-4.66;76.88;95533.44;5110959;28;20054;-81
2024/01/22 01:48:49;;;;;;;53.80;20.63;;;;;;;-4.66;76.91;95535.22;5113365;28;20096;-80
2024/01/22 01:51:15;;;;;;;54.63;22.10;;;;;;;-4.64;76.81;95533.25;5113468;28;20032;-81
2024/01/22 01:53:42;;;;;;;53.28;22.13;;;;;;;-4.72;76.74;95526.34;5111914;28;20035;-81
2024/01/22 01:56:08;;;;;;;49.53;20.40;;;;;;;-4.75;76.75;95529.28;5111113;28;20137;-80
2024/01/22 01:58:34;;;;;;;60.28;21.55;;;;;;;-4.68;76.75;95535.41;5111014;28;20257;-80
2024/01/22 02:01:01;;;;;;;48.70;21.85;;;;;;;-4.67;77.05;95524.00;5110994;28;20043;-80
2024/01/22 02:03:26;;;;;;;50.97;19.42;;;;;;;-4.60;76.28;95525.91;5109519;28;20218;-80
2024/01/22 02:05:52;;;;;;;50.65;20.75;;;;;;;-4.57;75.69;95515.94;5110027;28;20079;-79
2024/01/22 02:08:18;;;;;;;52.22;21.20;;;;;;;-4.58;75.85;95523.94;5107831;28;20046;-79
2024/01/22 02:10:47;;;;;;;50.38;20.70;;;;;;;-4.58;75.81;95535.16;5108845;28;20020;-80
2024/01/22 02:13:14;;;;;;;49.40;20.92;;;;;;;-4.57;76.06;95526.38;5109426;28;20020;-78
2024/01/22 02:15:42;;;;;;;52.50;22.52;;;;;;;-4.58;75.90;95529.13;5109622;28;20050;-80
2024/01/22 02:18:08;;;;;;;54.22;20.75;;;;;;;-4.55;75.58;95526.19;5112087;28;20016;-80
2024/01/22 02:20:34;;;;;;;46.47;20.00;;;;;;;-4.55;75.60;95531.41;5108096;28;20267;-79
2024/01/22 02:23:03;;;;;;;53.45;23.63;;;;;;;-4.53;75.64;95526.81;5107449;28;20022;-79
2024/01/22 02:25:28;;;;;;;51.97;21.73;;;;;;;-4.54;75.11;95526.03;5113175;28;20025;-80
2024/01/22 02:27:54;;;;;;;51.90;19.35;;;;;;;-4.62;74.68;95518.28;5110697;28;20023;-81
2024/01/22 02:30:19;;;;;;;51.42;22.77;;;;;;;-4.78;74.53;95523.63;5105903;28;20016;-79
2024/01/22 02:32:45;;;;;;;54.58;21.83;;;;;;;-4.90;74.64;95523.25;5106493;28;20036;-79
2024/01/22 02:35:10;;;;;;;61.75;25.13;;;;;;;-4.94;75.78;95515.00;5105649;28;20319;-79
2024/01/22 02:37:38;;;;;;;69.57;24.30;;;;;;;-4.92;76.30;95520.84;5107533;28;20038;-83
2024/01/22 02:40:03;;;;;;;59.35;23.73;;;;;;;-4.96;76.07;95511.75;5107957;28;20024;-83
2024/01/22 02:42:29;;;;;;;60.90;25.90;;;;;;;-4.96;76.81;95509.16;5107531;28;20203;-83
2024/01/22 02:44:54;;;;;;;54.05;22.63;;;;;;;-4.92;76.87;95509.63;5109280;28;20043;-83
2024/01/22 02:47:20;;;;;;;53.35;21.70;;;;;;;-4.94;76.51;95506.41;5110104;28;20020;-83
2024/01/22 02:49:45;;;;;;;53.10;21.85;;;;;;;-4.95;76.82;95504.75;5106881;28;20210;-84
2024/01/22 02:52:11;;;;;;;55.60;20.58;;;;;;;-4.91;76.06;95514.63;5105737;28;20124;-82
2024/01/22 02:54:36;;;;;;;46.90;19.52;;;;;;;-4.89;76.27;95507.47;5105371;28;20023;-83
2024/01/22 02:57:02;;;;;;;41.70;17.95;;;;;;;-4.96;75.92;95510.97;5104944;28;20210;-82
2024/01/22 02:59:27;;;;;;;44.42;17.38;;;;;;;-4.97;76.16;95510.13;5105643;28;20310;-82
2024/01/22 03:01:53;;;;;;;42.33;18.10;;;;;;;-4.95;75.90;95504.75;5104503;28;20043;-83
2024/01/22 03:04:18;;;;;;;48.13;17.33;;;;;;;-4.94;75.85;95509.78;5105422;28;20032;-83
2024/01/22 03:06:44;;;;;;;47.35;19.17;;;;;;;-4.92;75.93;95505.22;5104187;28;20363;-82
2024/01/22 03:09:09;;;;;;;49.67;19.02;;;;;;;-4.91;75.51;95504.22;5105159;28;20024;-82
2024/01/22 03:11:35;;;;;;;36.72;17.15;;;;;;;-4.91;75.32;95503.44;5105780;28;20032;-82
2024/01/22 03:14:00;;;;;;;42.47;18.08;;;;;;;-4.94;75.57;95509.78;5105852;28;20023;-82
2024/01/22 03:16:26;;;;;;;46.80;17.65;;;;;;;-4.91;75.12;95503.44;5106110;28;20277;-82
2024/01/22 03:18:53;;;;;;;42.80;16.67;;;;;;;-4.92;74.85;95520.03;5106606;28;20210;-77
2024/01/22 03:21:18;;;;;;;45.72;17.85;;;;;;;-4.96;74.65;95519.56;5106387;28;20031;-80
2024/01/22 03:23:43;;;;;;;41.65;18.17;;;;;;;-4.91;74.39;95532.03;5104904;28;20326;-80
2024/01/22 03:26:18;;;;;;;45.85;18.27;;;;;;;-4.99;74.55;95519.91;5104747;28;20247;-81
2024/01/22 03:28:43;;;;;;;42.85;17.75;;;;;;;-5.06;74.44;95522.41;5104761;28;20043;-81
2024/01/22 03:31:26;;;;;;;39.13;16.67;;;;;;;-5.01;74.57;95524.47;5104751;28;20027;-80
2024/01/22 03:33:52;;;;;;;36.47;16.13;;;;;;;-5.04;74.66;95523.03;5104862;28;20015;-79
2024/01/22 03:36:18;;;;;;;40.22;16.23;;;;;;;-5.01;74.51;95531.47;5104476;28;20019;-78
2024/01/22 03:38:44;;;;;;;43.53;16.77;;;;;;;-5.05;74.06;95534.44;5104494;28;20268;-78
2024/01/22 03:41:10;;;;;;;45.35;16.05;;;;;;;-5.06;74.57;95529.41;5104549;28;20321;-80
2024/01/22 03:43:35;;;;;;;46.92;19.27;;;;;;;-5.05;74.75;95534.44;5103467;28;20102;-80
2024/01/22 03:46:01;;;;;;;42.63;16.90;;;;;;;-5.07;74.67;95531.19;5104080;28;20028;-79
2024/01/22 03:48:27;;;;;;;38.83;17.45;;;;;;;-5.11;74.70;95529.94;5104213;28;20024;-79
2024/01/22 03:50:54;;;;;;;42.28;18.63;;;;;;;-5.16;74.97;95534.84;5104433;28;20096;-80
2024/01/22 03:53:20;;;;;;;36.15;16.33;;;;;;;-5.15;74.96;95522.63;5104337;28;20028;-80
2024/01/22 03:55:45;;;;;;;38.22;16.17;;;;;;;-5.22;74.79;95519.13;5104508;28;20024;-80
2024/01/22 03:58:11;;;;;;;39.45;17.88;;;;;;;-5.31;75.11;95528.75;5103885;28;20028;-79
2024/01/22 04:00:37;;;;;;;43.88;17.83;;;;;;;-5.40;75.19;95524.63;5104218;28;20027;-81
2024/01/22 04:03:03;;;;;;;45.97;18.77;;;;;;;-5.55;76.21;95527.94;5104255;28;20024;-80
2024/01/22 04:05:28;;;;;;;38.50;17.27;;;;;;;-5.53;76.48;95535.59;5103995;28;20027;-82
2024/01/22 04:07:54;;;;;;;39.97;17.10;;;;;;;-5.45;75.89;95528.53;5104309;28;20028;-81
2024/01/22 04:10:19;;;;;;;43.22;17.25;;;;;;;-5.38;75.60;95540.84;5103897;28;20108;-81
2024/01/22 04:12:45;;;;;;;42.15;17.08;;;;;;;-5.39;75.75;95534.00;5103584;28;20098;-81
2024/01/22 04:15:10;;;;;;;47.42;18.23;;;;;;;-5.35;76.27;95527.47;5103924;28;20019;-82
2024/01/22 04:17:36;;;;;;;45.15;19.25;;;;;;;-5.32;76.01;95527.16;5103985;28;20099;-81
2024/01/22 04:20:03;;;;;;;52.92;19.55;;;;;;;-5.23;76.26;95526.13;5103967;28;20024;-82
2024/01/22 04:22:28;;;;;;;53.75;18.33;;;;;;;-5.24;76.19;95527.09;5103893;28;20031;-81
2024/01/22 04:24:54;;;;;;;53.20;20.05;;;;;;;-5.30;76.61;95530.38;5102756;28;20027;-81
2024/01/22 04:27:20;;;;;;;47.47;19.77;;;;;;;-5.25;76.04;95538.50;5103707;28;20032;-81
2024/01/22 04:29:45;;;;;;;45.33;18.55;;;;;;;-5.33;75.57;95523.75;5103777;28;20083;-81
2024/01/22 04:32:11;;;;;;;58.53;20.17;;;;;;;-5.36;75.79;95536.28;5104022;28;20314;-81
2024/01/22 04:34:39;;;;;;;49.75;20.05;;;;;;;-5.36;76.20;95531.09;5104527;28;20311;-82
2024/01/22 04:37:05;;;;;;;50.53;18.10;;;;;;;-5.44;76.20;95532.75;5103660;28;20297;-82
2024/01/22 04:39:31;;;;;;;49.60;18.88;;;;;;;-5.57;76.28;95524.72;5103934;28;20065;-81
2024/01/22 04:41:56;;;;;;;43.53;18.98;;;;;;;-5.68;77.05;95517.31;5103604;28;20311;-81
2024/01/22 04:44:22;;;;;;;50.70;19.08;;;;;;;-5.79;77.65;95517.69;5103681;28;20028;-80
2024/01/22 04:46:47;;;;;;;54.70;21.08;;;;;;;-5.90;77.68;95524.91;5103710;28;20024;-79
2024/01/22 04:49:13;;;;;;;46.03;19.25;;;;;;;-5.82;77.60;95525.81;5103732;28;20091;-79
2024/01/22 04:51:42;;;;;;;47.60;20.00;;;;;;;-5.82;78.15;95528.41;5103690;28;20024;-80
2024/01/22 04:54:09;;;;;;;54.53;21.67;;;;;;;-5.85;77.97;95532.97;5103468;28;20016;-79
2024/01/22 04:56:42;;;;;;;53.15;20.45;;;;;;;-5.86;77.50;95527.97;5102678;28;20094;-79
2024/01/22 04:59:10;;;;;;;49.75;21.33;;;;;;;-5.88;77.45;95528.13;5103394;28;20318;-80
2024/01/22 05:01:36;;;;;;;53.13;20.83;;;;;;;-5.90;77.06;95526.69;5103368;28;20048;-78
2024/01/22 05:04:02;;;;;;;53.22;21.60;;;;;;;-6.26;78.17;95535.78;5103067;28;20055;-77
2024/01/22 05:06:28;;;;;;;55.63;21.23;;;;;;;-6.23;79.63;95539.81;5103426;28;20038;-77
2024/01/22 05:08:54;;;;;;;56.47;22.13;;;;;;;-6.20;79.96;95539.50;5103338;28;20207;-76
2024/01/22 05:11:19;;;;;;;58.63;22.42;;;;;;;-6.05;80.11;95548.19;5102076;28;20081;-76
2024/01/22 05:13:52;;;;;;;59.78;21.38;;;;;;;-5.93;79.60;95546.00;5103001;28;20016;-78
2024/01/22 05:16:20;;;;;;;55.55;22.38;;;;;;;-5.87;78.92;95537.53;5103265;28;20079;-79
2024/01/22 05:18:46;;;;;;;60.58;22.77;;;;;;;-5.90;78.14;95537.88;5103513;28;20223;-80
2024/01/22 05:21:12;;;;;;;51.40;20.35;;;;;;;-5.95;77.75;95544.59;5103295;28;20081;-79
2024/01/22 05:23:41;;;;;;;57.15;22.45;;;;;;;-5.97;77.94;95539.56;5103190;28;20020;-79
2024/01/22 05:26:07;;;;;;;56.50;20.48;;;;;;;-6.01;78.12;95547.84;5103084;28;20078;-79
2024/01/22 05:28:33;;;;;;;57.10;20.20;;;;;;;-6.26;79.14;95538.38;5103247;28;20023;-79
2024/01/22 05:30:59;;;;;;;62.33;23.02;;;;;;;-6.58;80.20;95548.84;5103421;28;20218;-78
2024/01/22 05:33:25;;;;;;;43.38;17.05;;;;;;;-6.36;80.43;95555.91;5103393;28;20053;-78
2024/01/22 05:35:50;;;;;;;45.13;19.65;;;;;;;-6.25;79.98;95539.16;5103425;28;20323;-79
2024/01/22 05:38:15;;;;;;;42.38;17.10;;;;;;;-6.16;79.79;95545.97;5103056;28;20020;-78
2024/01/22 05:40:41;;;;;;;40.47;17.05;;;;;;;-6.05;79.67;95537.78;5106314;28;20066;-79
2024/01/22 05:43:07;;;;;;;47.83;16.52;;;;;;;-5.98;79.17;95542.31;5106613;28;20023;-78
2024/01/22 05:45:32;;;;;;;45.67;17.15;;;;;;;-5.93;78.70;95546.00;5106696;28;20079;-79
2024/01/22 05:47:58;;;;;;;46.97;19.58;;;;;;;-5.90;78.65;95547.47;5106383;28;20218;-79
2024/01/22 05:50:23;;;;;;;46.75;17.30;;;;;;;-5.89;78.81;95538.69;5106799;28;20317;-80
2024/01/22 05:52:49;;;;;;;40.67;16.92;;;;;;;-5.85;78.54;95538.16;5106240;28;20130;-80
2024/01/22 05:55:14;;;;;;;43.28;16.45;;;;;;;-5.87;77.58;95537.53;5106441;28;20036;-80
2024/01/22 05:57:40;;;;;;;45.63;16.33;;;;;;;-5.86;77.54;95531.38;5106723;28;20277;-81
2024/01/22 06:00:09;;;;;;;43.30;16.83;;;;;;;-5.91;77.33;95538.84;5106450;28;20069;-82
2024/01/22 06:02:38;;;;;;;55.20;17.77;;;;;;;-5.95;77.46;95542.78;5106098;28;20242;-81
2024/01/22 06:05:04;;;;;;;40.92;17.60;;;;;;;-5.99;77.50;95551.09;5106246;28;20051;-80
2024/01/22 06:07:29;;;;;;;48.88;16.63;;;;;;;-5.99;78.00;95553.69;5106101;28;20031;-80
2024/01/22 06:09:55;;;;;;;45.50;18.15;;;;;;;-5.92;78.06;95549.41;5105090;28;20024;-81
2024/01/22 06:12:20;;;;;;;46.05;18.15;;;;;;;-5.88;77.84;95551.50;5106834;28;20020;-80
2024/01/22 06:14:46;;;;;;;51.92;19.05;;;;;;;-5.88;77.87;95559.28;5105895;28;20020;-80
2024/01/22 06:17:11;;;;;;;63.13;18.75;;;;;;;-5.91;77.86;95554.44;5104921;28;20031;-80
2024/01/22 06:19:36;;;;;;;53.20;18.48;;;;;;;-5.86;77.59;95546.94;5106151;28;20199;-80
2024/01/22 06:22:02;;;;;;;52.00;19.27;;;;;;;-5.89;77.77;95560.25;5105946;28;20016;-79
2024/01/22 06:24:28;;;;;;;62.63;23.08;;;;;;;-5.85;77.94;95558.13;5106293;28;20035;-81
2024/01/22 06:26:54;;;;;;;56.55;20.25;;;;;;;-5.76;78.07;95564.09;5106014;28;20058;-82
2024/01/22 06:29:19;;;;;;;52.72;20.17;;;;;;;-5.68;77.50;95566.66;5104957;28;20020;-80
2024/01/22 06:31:45;;;;;;;57.78;21.25;;;;;;;-5.72;75.96;95567.97;5105849;28;20024;-80
2024/01/22 06:34:11;;;;;;;54.22;21.25;;;;;;;-5.78;75.64;95579.03;5105686;28;20012;-79
2024/01/22 06:36:37;;;;;;;57.08;21.55;;;;;;;-5.81;76.05;95572.41;5105430;28;20341;-80
2024/01/22 06:39:03;;;;;;;54.90;21.35;;;;;;;-5.85;76.28;95571.13;5105143;28;20020;-81
2024/01/22 06:41:29;;;;;;;61.08;22.52;;;;;;;-5.98;75.59;95569.09;5105798;28;20087;-81
2024/01/22 06:43:54;;;;;;;60.33;21.80;;;;;;;-6.02;76.64;95565.22;5105657;28;20031;-81
2024/01/22 06:46:20;;;;;;;56.70;21.67;;;;;;;-5.94;77.44;95564.34;5105743;28;20191;-78
2024/01/22 06:48:45;;;;;;;53.65;20.98;;;;;;;-5.86;77.09;95559.13;5103877;28;20089;-78
2024/01/22 06:51:11;;;;;;;57.20;20.10;;;;;;;-5.87;76.60;95566.09;5103593;28;20237;-79
2024/01/22 06:53:37;;;;;;;63.53;20.88;;;;;;;-5.87;76.71;95560.09;5105397;28;20034;-81
2024/01/22 06:56:02;;;;;;;60.40;22.33;;;;;;;-5.91;76.07;95564.00;5105451;28;20315;-84
2024/01/22 06:58:28;;;;;;;51.67;19.95;;;;;;;-5.99;75.96;95564.88;5105745;28;20028;-83
2024/01/22 07:00:53;;;;;;;64.85;21.92;;;;;;;-6.04;76.23;95572.38;5105496;28;20059;-82
2024/01/22 07:03:20;;;;;;;54.35;21.90;;;;;;;-6.10;76.44;95581.63;5104532;28;20032;-78
2024/01/22 07:05:46;;;;;;;55.20;19.75;;;;;;;-6.39;78.22;95586.56;5104916;28;20028;-78
2024/01/22 07:08:11;;;;;;;54.85;21.58;;;;;;;-6.34;77.81;95590.28;5104810;28;20267;-77
2024/01/22 07:10:37;;;;;;;60.50;22.65;;;;;;;-6.35;77.76;95604.25;5105041;28;20028;-79
2024/01/22 07:13:06;;;;;;;63.83;22.83;;;;;;;-6.40;78.10;95600.53;5104787;28;20028;-79
2024/01/22 07:15:31;;;;;;;53.88;21.92;;;;;;;-6.47;78.58;95590.00;5104912;28;20028;-78
2024/01/22 07:17:57;;;;;;;58.03;21.50;;;;;;;-6.40;79.01;95584.97;5103698;28;20046;-79
2024/01/22 07:20:23;;;;;;;59.85;22.08;;;;;;;-6.34;78.57;95582.50;5105073;28;20028;-80
2024/01/22 07:22:48;;;;;;;58.47;22.45;;;;;;;-6.27;78.74;95588.66;5104309;28;20035;-79
2024/01/22 07:25:14;;;;;;;72.85;23.45;;;;;;;-6.14;79.26;95584.75;5104419;28;20106;-78
2024/01/22 07:27:41;;;;;;;64.30;23.00;;;;;;;-6.20;79.43;95588.81;5104400;28;20031;-78
2024/01/22 07:30:09;;;;;;;59.97;23.13;;;;;;;-6.01;79.74;95585.00;5104415;28;20050;-78
2024/01/22 07:32:36;;;;;;;63.53;22.15;;;;;;;-5.79;79.17;95593.03;5104365;28;20257;-78
2024/01/22 07:35:08;;;;;;;70.78;23.58;;;;;;;-5.70;78.02;95584.19;5104303;28;20020;-78
2024/01/22 07:37:38;;;;;;;66.22;25.30;;;;;;;-5.74;76.47;95580.31;5104489;28;20179;-78
2024/01/22 07:40:04;;;;;;;60.35;23.45;;;;;;;-5.73;77.13;95576.75;5104364;28;20277;-78
2024/01/22 07:42:34;;;;;;;58.45;23.08;;;;;;;-5.80;77.98;95571.44;5104308;28;20085;-80
2024/01/22 07:45:01;;;;;;;62.10;23.55;;;;;;;-5.60;77.90;95571.00;5104286;28;20020;-79
2024/01/22 07:47:27;;;;;;;60.67;24.77;;;;;;;-5.54;77.25;95568.53;5103880;28;20217;-72
2024/01/22 07:49:53;;;;;;;67.38;24.42;;;;;;;-5.59;76.09;95563.06;5103790;28;20098;-77
2024/01/22 07:52:18;;;;;;;63.40;23.30;;;;;;;-5.59;76.50;95564.84;5104445;28;20027;-85
2024/01/22 07:54:44;;;;;;;71.03;24.52;;;;;;;-5.53;78.42;95557.16;5104746;28;20051;-83
2024/01/22 07:57:10;;;;;;;60.67;23.30;;;;;;;-5.38;77.82;95561.63;5106802;28;20057;-76
2024/01/22 07:59:38;;;;;;;65.53;23.00;;;;;;;-5.39;77.19;95568.63;5103430;28;20030;-76
2024/01/22 08:02:05;;;;;;;71.72;25.00;;;;;;;-5.23;77.65;95559.91;5102847;28;20047;-78
2024/01/22 08:04:31;;;;;;;66.32;24.60;;;;;;;-5.06;77.51;95558.00;5102206;28;20095;-77
2024/01/22 08:07:00;;;;;;;63.92;25.17;;;;;;;-4.86;77.26;95566.16;5103361;28;20020;-76
2024/01/22 08:09:25;;;;;;;66.13;24.42;;;;;;;-4.77;76.96;95559.06;5103535;28;20191;-76
2024/01/22 08:11:50;;;;;;;74.95;25.58;;;;;;;-4.59;76.01;95550.97;5103490;28;20077;-74
2024/01/22 08:14:16;;;;;;;71.43;27.08;;;;;;;-4.41;75.00;95553.22;5103153;28;20016;-76
2024/01/22 08:16:43;;;;;;;69.82;26.08;;;;;;;-4.35;74.81;95550.72;5102922;28;20019;-74
2024/01/22 08:19:08;;;;;;;64.97;22.92;;;;;;;-4.35;74.11;95544.72;5102596;28;20031;-74
2024/01/22 08:21:33;;;;;;;63.47;24.55;;;;;;;-4.17;73.67;95541.72;5102629;28;20058;-75
2024/01/22 08:23:59;;;;;;;69.53;25.13;;;;;;;-4.04;73.67;95532.28;5102982;28;20023;-75
2024/01/22 08:26:24;;;;;;;55.92;22.35;;;;;;;-3.91;72.28;95529.06;5101646;28;20431;-75
2024/01/22 08:28:50;;;;;;;61.70;23.95;;;;;;;-3.87;71.78;95522.50;5102890;28;20199;-75
2024/01/22 08:31:15;;;;;;;66.43;25.63;;;;;;;-3.70;71.89;95520.50;5102932;28;20020;-75
2024/01/22 08:33:41;;;;;;;66.68;27.08;;;;;;;-3.57;71.31;95522.44;5102735;28;20036;-74
2024/01/22 08:36:06;;;;;;;67.35;25.45;;;;;;;-3.47;71.53;95529.97;5102795;28;20094;-75
2024/01/22 08:38:32;;;;;;;66.75;25.77;;;;;;;-3.42;70.27;95535.41;5102863;28;20061;-74
2024/01/22 08:40:57;;;;;;;63.17;24.35;;;;;;;-3.47;68.08;95543.00;5102754;28;20047;-75
2024/01/22 08:43:22;;;;;;;69.85;26.00;;;;;;;-3.65;67.20;95556.41;5102829;28;20024;-74
2024/01/22 08:45:48;;;;;;;62.63;24.08;;;;;;;-3.91;67.69;95564.72;5102486;28;20020;-75
2024/01/22 08:48:13;;;;;;;62.70;25.02;;;;;;;-4.37;68.88;95573.50;5102802;28;20028;-75
2024/01/22 08:50:39;;;;;;;65.80;25.80;;;;;;;-4.77;70.48;95566.88;5102629;28;20073;-75
2024/01/22 08:53:04;;;;;;;60.28;24.55;;;;;;;-4.92;71.75;95549.44;5102813;28;20089;-75
2024/01/22 08:55:30;;;;;;;65.30;26.83;;;;;;;-4.90;72.07;95541.47;5102678;28;20035;-73
2024/01/22 08:57:55;;;;;;;64.57;25.58;;;;;;;-4.89;72.95;95538.66;5102491;28;20026;-77
2024/01/22 09:00:22;;;;;;;63.13;24.10;;;;;;;-5.11;73.54;95537.75;5102595;28;20027;-80
2024/01/22 09:02:47;;;;;;;67.28;24.63;;;;;;;-4.87;74.37;95551.50;5102583;28;20043;-78
2024/01/22 09:05:13;;;;;;;73.68;27.45;;;;;;;-4.78;73.19;95555.69;5102801;28;20307;-77
2024/01/22 09:07:39;;;;;;;68.72;26.60;;;;;;;-4.69;72.99;95559.81;5102795;28;20027;-83
2024/01/22 09:10:08;;;;;;;66.50;24.42;;;;;;;-4.60;72.25;95557.94;5101446;28;20048;-77
2024/01/22 09:12:35;;;;;;;58.63;23.08;;;;;;;-4.67;71.84;95562.25;5102933;28;20024;-78
2024/01/22 09:15:02;;;;;;;63.05;24.42;;;;;;;-4.74;71.53;95556.09;5106934;28;20028;-82
2024/01/22 09:17:28;;;;;;;59.38;23.98;;;;;;;-4.75;72.03;95550.09;5105333;28;20124;-79
2024/01/22 09:19:53;;;;;;;71.10;25.90;;;;;;;-4.63;73.06;95547.88;5108135;28;20024;-88
2024/01/22 09:22:21;;;;;;;65.95;25.88;;;;;;;-4.54;73.09;95533.00;5107832;28;20031;-79
2024/01/22 09:24:47;;;;;;;69.32;26.00;;;;;;;-4.47;72.95;95528.72;5106365;28;20024;-79
2024/01/22 09:27:13;;;;;;;62.30;23.27;;;;;;;-4.37;73.15;95531.88;5106866;28;20065;-80
2024/01/22 09:29:41;;;;;;;67.68;25.33;;;;;;;-4.25;72.95;95529.63;5107306;28;20312;-82
2024/01/22 09:32:07;;;;;;;62.90;23.55;;;;;;;-4.25;71.38;95540.84;5106443;28;20024;-83
2024/01/22 09:34:33;;;;;;;59.88;23.30;;;;;;;-4.38;70.91;95543.25;5106467;28;20342;-81
2024/01/22 09:36:58;;;;;;;60.60;24.45;;;;;;;-4.39;71.72;95533.84;5106669;28;20031;-80
2024/01/22 09:39:24;;;;;;;55.88;23.13;;;;;;;-4.46;71.82;95540.72;5105787;28;20306;-83
2024/01/22 09:41:52;;;;;;;59.00;23.63;;;;;;;-4.41;71.46;95541.00;5107186;28;20054;-77
2024/01/22 09:44:18;;;;;;;65.07;22.95;;;;;;;-4.34;72.54;95541.91;5105965;28;20055;-76
2024/01/22 09:46:45;;;;;;;64.57;24.85;;;;;;;-4.21;72.49;95540.47;5105899;28;20515;-77
2024/01/22 09:49:11;;;;;;;56.92;23.25;;;;;;;-4.10;72.13;95527.00;5104580;28;20059;-78
2024/01/22 09:51:46;;;;;;;52.80;20.80;;;;;;;-4.06;71.25;95530.88;5104656;28;20363;-76
2024/01/22 09:54:19;;;;;;;45.97;19.65;;;;;;;-4.12;70.17;95529.00;5106017;28;20066;-76
2024/01/22 09:56:52;;;;;;;51.95;18.73;;;;;;;-4.25;70.87;95533.03;5104520;28;20032;-77
2024/01/22 09:59:31;;;;;;;51.78;18.73;;;;;;;-4.33;70.55;95527.91;5105868;28;20095;-80
2024/01/22 10:01:56;;;;;;;49.60;21.05;;;;;;;-4.30;70.16;95524.94;5106136;28;20044;-82
2024/01/22 10:04:26;;;;;;;48.72;19.88;;;;;;;-4.27;70.32;95522.00;5104901;28;20077;-78
2024/01/22 10:06:52;;;;;;;50.88;20.77;;;;;;;-4.16;71.06;95514.72;5105730;28;20297;-77
2024/01/22 10:09:17;;;;;;;48.38;20.33;;;;;;;-3.99;72.24;95515.31;5105380;28;20024;-78
2024/01/22 10:11:44;;;;;;;45.75;19.40;;;;;;;-3.79;71.50;95508.53;5105424;28;20073;-83
2024/01/22 10:14:10;;;;;;;46.42;19.38;;;;;;;-3.73;70.24;95496.59;5105422;28;20019;-77
2024/01/22 10:16:39;;;;;;;50.65;21.33;;;;;;;-3.61;70.26;95489.91;5105451;28;20030;-79
2024/01/22 10:19:07;;;;;;;48.70;21.17;;;;;;;-3.44;70.09;95486.09;5105373;28;20020;-77
2024/01/22 10:21:33;;;;;;;51.58;20.52;;;;;;;-3.32;70.70;95485.56;5105433;28;20023;-74
2024/01/22 10:24:03;;;;;;;51.05;22.52;;;;;;;-3.23;69.02;95487.06;5104623;28;20024;-77
2024/01/22 10:26:32;;;;;;;55.03;22.40;;;;;;;-3.25;67.78;95484.66;5104669;28;20417;-77
2024/01/22 10:29:18;;;;;;;49.30;19.38;;;;;;;-3.36;68.80;95479.13;5105297;28;20024;-80
2024/01/22 10:32:00;;;;;;;50.60;21.23;;;;;;;-3.22;68.15;95473.03;5104887;28;20038;-76
2024/01/22 10:34:30;;;;;;;50.63;19.70;;;;;;;-3.26;67.96;95482.22;5103389;28;20031;-76
2024/01/22 10:37:12;;;;;;;56.95;20.67;;;;;;;-3.20;67.79;95486.69;5103378;28;20027;-77
2024/01/22 10:39:42;;;;;;;51.50;20.43;;;;;;;-3.04;69.13;95475.19;5103201;28;20024;-78
2024/01/22 10:42:10;;;;;;;53.58;21.30;;;;;;;-2.92;67.95;95478.09;5103171;28;20020;-77
2024/01/22 10:44:38;;;;;;;46.13;20.15;;;;;;;-2.92;68.43;95472.88;5102912;28;20023;-79
2024/01/22 10:47:04;;;;;;;45.97;18.88;;;;;;;-2.70;69.00;95464.00;5102043;28;20035;-79
2024/01/22 10:49:30;;;;;;;48.28;20.67;;;;;;;-2.53;68.72;95464.50;5103647;28;20330;-80
2024/01/22 10:52:00;;;;;;;51.15;22.23;;;;;;;-2.27;68.60;95452.59;5103898;28;20031;-79
2024/01/22 10:54:33;;;;;;;59.72;25.90;;;;;;;-2.08;68.07;95453.69;5104208;28;20016;-77
2024/01/22 10:57:09;;;;;;;47.85;21.98;;;;;;;-1.91;66.91;95448.94;5104212;28;20027;-78
2024/01/22 10:59:36;;;;;;;50.97;21.10;;;;;;;-1.79;65.72;95436.09;5104725;28;20027;-80
2024/01/22 11:02:04;;;;;;;61.88;25.13;;;;;;;-1.64;65.55;95431.50;5104237;28;20305;-77
2024/01/22 11:04:34;;;;;;;55.13;23.85;;;;;;;-1.49;65.87;95431.34;5104074;28;20315;-78
2024/01/22 11:07:02;;;;;;;61.10;26.10;;;;;;;-1.34;65.32;95439.81;5103499;28;20024;-78
2024/01/22 11:09:32;;;;;;;57.40;25.75;;;;;;;-1.17;64.02;95435.00;5103795;28;20032;-78
2024/01/22 11:12:12;;;;;;;63.13;26.92;;;;;;;-1.09;64.51;95437.41;5104092;28;20088;-77
2024/01/22 11:14:40;;;;;;;62.05;25.15;;;;;;;-0.97;64.54;95434.19;5102993;28;20019;-78